sensor_id;sensor_type;location;lat;lon;timestamp;temperature;humidity
5346;DHT22;2695;49.444;11.054;2022-10-15T00:01:26;13.90;99.90
5346;DHT22;2695;49.444;11.054;2022-10-15T00:03:55;13.90;99.90
5346;DHT22;2695;49.444;11.054;2022-10-15T00:06:23;13.90;99.90
5346;DHT22;2695;49.444;11.054;2022-10-15T00:08:52;13.90;99.90
5346;DHT22;2695;49.444;11.054;2022-10-15T00:11:21;13.90;99.90
5346;DHT22;2695;49.444;11.054;2022-10-15T00:13:52;13.90;99.90
5346;DHT22;2695;49.444;11.054;2022-10-15T00:16:22;14.00;99.90
5346;DHT22;2695;49.444;11.054;2022-10-15T00:18:51;14.00;99.90
5346;DHT22;2695;49.444;11.054;2022-10-15T00:21:21;14.00;99.90
5346;DHT22;2695;49.444;11.054;2022-10-15T00:23:49;13.90;99.90
5346;DHT22;2695;49.444;11.054;2022-10-15T00:26:19;13.90;99.90
5346;DHT22;2695;49.444;11.054;2022-10-15T00:28:49;13.90;99.90
5346;DHT22;2695;49.444;11.054;2022-10-15T00:31:18;13.90;99.90
5346;DHT22;2695;49.444;11.054;2022-10-15T00:33:49;13.90;99.90
5346;DHT22;2695;49.444;11.054;2022-10-15T00:36:21;14.00;99.90
5346;DHT22;2695;49.444;11.054;2022-10-15T00:38:50;14.00;99.90
5346;DHT22;2695;49.444;11.054;2022-10-15T00:41:20;14.00;99.90
5346;DHT22;2695;49.444;11.054;2022-10-15T00:43:50;14.00;99.90
5346;DHT22;2695;49.444;11.054;2022-10-15T00:46:23;14.00;99.90
5346;DHT22;2695;49.444;11.054;2022-10-15T00:48:54;14.00;99.90
5346;DHT22;2695;49.444;11.054;2022-10-15T00:51:28;14.00;99.90
5346;DHT22;2695;49.444;11.054;2022-10-15T00:53:59;14.00;99.90
5346;DHT22;2695;49.444;11.054;2022-10-15T00:56:30;14.00;99.90
5346;DHT22;2695;49.444;11.054;2022-10-15T00:58:59;14.00;99.90
5346;DHT22;2695;49.444;11.054;2022-10-15T01:01:28;14.00;99.90
5346;DHT22;2695;49.444;11.054;2022-10-15T01:03:56;13.90;99.90
5346;DHT22;2695;49.444;11.054;2022-10-15T01:06:26;14.00;99.90
5346;DHT22;2695;49.444;11.054;2022-10-15T01:08:54;14.00;99.90
5346;DHT22;2695;49.444;11.054;2022-10-15T01:11:30;13.90;99.90
5346;DHT22;2695;49.444;11.054;2022-10-15T01:14:11;13.90;99.90
5346;DHT22;2695;49.444;11.054;2022-10-15T01:16:46;13.90;99.90
5346;DHT22;2695;49.444;11.054;2022-10-15T01:19:27;13.90;99.90
5346;DHT22;2695;49.444;11.054;2022-10-15T01:22:03;14.00;99.90
5346;DHT22;2695;49.444;11.054;2022-10-15T01:24:42;14.00;99.90
5346;DHT22;2695;49.444;11.054;2022-10-15T01:27:21;14.00;99.90
5346;DHT22;2695;49.444;11.054;2022-10-15T01:30:26;14.00;99.90
5346;DHT22;2695;49.444;11.054;2022-10-15T01:33:24;14.00;99.90
5346;DHT22;2695;49.444;11.054;2022-10-15T01:35:56;13.90;99.90
5346;DHT22;2695;49.444;11.054;2022-10-15T01:38:36;13.90;99.90
5346;DHT22;2695;49.444;11.054;2022-10-15T01:41:09;13.90;99.90
5346;DHT22;2695;49.444;11.054;2022-10-15T01:43:43;13.90;99.90
5346;DHT22;2695;49.444;11.054;2022-10-15T01:46:18;13.90;99.90
5346;DHT22;2695;49.444;11.054;2022-10-15T01:48:51;13.90;99.90
5346;DHT22;2695;49.444;11.054;2022-10-15T01:51:22;13.90;99.90
5346;DHT22;2695;49.444;11.054;2022-10-15T01:53:51;13.90;99.90
5346;DHT22;2695;49.444;11.054;2022-10-15T01:56:22;14.00;99.90
5346;DHT22;2695;49.444;11.054;2022-10-15T01:58:54;14.00;99.90
5346;DHT22;2695;49.444;11.054;2022-10-15T02:01:24;14.00;99.90
5346;DHT22;2695;49.444;11.054;2022-10-15T02:03:52;14.00;99.90
5346;DHT22;2695;49.444;11.054;2022-10-15T02:06:24;13.90;99.90
5346;DHT22;2695;49.444;11.054;2022-10-15T02:12:41;14.00;99.90
5346;DHT22;2695;49.444;11.054;2022-10-15T02:15:17;14.00;99.90
5346;DHT22;2695;49.444;11.054;2022-10-15T02:21:30;13.90;99.90
5346;DHT22;2695;49.444;11.054;2022-10-15T02:24:06;13.90;99.90
5346;DHT22;2695;49.444;11.054;2022-10-15T02:29:19;13.90;99.90
5346;DHT22;2695;49.444;11.054;2022-10-15T02:31:49;13.90;99.90
5346;DHT22;2695;49.444;11.054;2022-10-15T02:34:20;13.90;99.90
5346;DHT22;2695;49.444;11.054;2022-10-15T02:36:51;13.90;99.90
5346;DHT22;2695;49.444;11.054;2022-10-15T02:39:21;13.90;99.90
5346;DHT22;2695;49.444;11.054;2022-10-15T02:41:52;13.90;99.90
5346;DHT22;2695;49.444;11.054;2022-10-15T02:44:21;13.90;99.90
5346;DHT22;2695;49.444;11.054;2022-10-15T02:46:50;13.80;99.90
5346;DHT22;2695;49.444;11.054;2022-10-15T02:49:18;13.80;99.90
5346;DHT22;2695;49.444;11.054;2022-10-15T02:51:46;13.90;99.90
5346;DHT22;2695;49.444;11.054;2022-10-15T02:54:16;13.80;99.90
5346;DHT22;2695;49.444;11.054;2022-10-15T02:56:44;13.90;99.90
5346;DHT22;2695;49.444;11.054;2022-10-15T02:59:12;13.80;99.90
5346;DHT22;2695;49.444;11.054;2022-10-15T03:01:40;13.80;99.90
5346;DHT22;2695;49.444;11.054;2022-10-15T03:04:08;13.80;99.90
5346;DHT22;2695;49.444;11.054;2022-10-15T03:06:42;13.80;99.90
5346;DHT22;2695;49.444;11.054;2022-10-15T03:09:10;13.80;99.90
5346;DHT22;2695;49.444;11.054;2022-10-15T03:12:01;13.80;99.90
5346;DHT22;2695;49.444;11.054;2022-10-15T03:14:30;13.80;99.90
5346;DHT22;2695;49.444;11.054;2022-10-15T03:16:59;13.90;99.90
5346;DHT22;2695;49.444;11.054;2022-10-15T03:23:18;13.90;99.90
5346;DHT22;2695;49.444;11.054;2022-10-15T03:26:23;13.90;99.90
5346;DHT22;2695;49.444;11.054;2022-10-15T03:28:53;14.00;99.90
5346;DHT22;2695;49.444;11.054;2022-10-15T03:31:21;14.00;99.90
5346;DHT22;2695;49.444;11.054;2022-10-15T03:33:49;13.90;99.90
5346;DHT22;2695;49.444;11.054;2022-10-15T03:36:17;13.90;99.90
5346;DHT22;2695;49.444;11.054;2022-10-15T03:38:46;13.90;99.90
5346;DHT22;2695;49.444;11.054;2022-10-15T03:41:14;13.90;99.90
5346;DHT22;2695;49.444;11.054;2022-10-15T03:43:42;14.00;99.90
5346;DHT22;2695;49.444;11.054;2022-10-15T03:46:11;14.00;99.90
5346;DHT22;2695;49.444;11.054;2022-10-15T03:48:39;13.90;99.90
5346;DHT22;2695;49.444;11.054;2022-10-15T03:51:07;13.90;99.90
5346;DHT22;2695;49.444;11.054;2022-10-15T03:53:35;13.90;99.90
5346;DHT22;2695;49.444;11.054;2022-10-15T03:56:05;13.90;99.90
5346;DHT22;2695;49.444;11.054;2022-10-15T03:58:33;13.90;99.90
5346;DHT22;2695;49.444;11.054;2022-10-15T04:01:07;13.90;99.90
5346;DHT22;2695;49.444;11.054;2022-10-15T04:03:37;13.90;99.90
5346;DHT22;2695;49.444;11.054;2022-10-15T04:06:06;13.80;99.90
5346;DHT22;2695;49.444;11.054;2022-10-15T04:08:34;13.80;99.90
5346;DHT22;2695;49.444;11.054;2022-10-15T04:11:02;13.80;99.90
5346;DHT22;2695;49.444;11.054;2022-10-15T04:13:30;13.80;99.90
5346;DHT22;2695;49.444;11.054;2022-10-15T04:15:58;13.80;99.90
5346;DHT22;2695;49.444;11.054;2022-10-15T04:18:28;13.80;99.90
5346;DHT22;2695;49.444;11.054;2022-10-15T04:20:59;13.80;99.90
5346;DHT22;2695;49.444;11.054;2022-10-15T04:23:27;13.80;99.90
5346;DHT22;2695;49.444;11.054;2022-10-15T04:25:58;13.80;99.90
5346;DHT22;2695;49.444;11.054;2022-10-15T04:28:27;13.80;99.90
5346;DHT22;2695;49.444;11.054;2022-10-15T04:30:56;13.80;99.90
5346;DHT22;2695;49.444;11.054;2022-10-15T04:33:25;13.80;99.90
5346;DHT22;2695;49.444;11.054;2022-10-15T04:36:02;13.80;99.90
5346;DHT22;2695;49.444;11.054;2022-10-15T04:38:30;13.80;99.90
5346;DHT22;2695;49.444;11.054;2022-10-15T04:41:00;13.80;99.90
5346;DHT22;2695;49.444;11.054;2022-10-15T04:43:28;13.80;99.90
5346;DHT22;2695;49.444;11.054;2022-10-15T04:46:00;13.80;99.90
5346;DHT22;2695;49.444;11.054;2022-10-15T04:48:29;13.80;99.90
5346;DHT22;2695;49.444;11.054;2022-10-15T04:51:04;13.80;99.90
5346;DHT22;2695;49.444;11.054;2022-10-15T04:53:32;13.80;99.90
5346;DHT22;2695;49.444;11.054;2022-10-15T04:56:02;13.80;99.90
5346;DHT22;2695;49.444;11.054;2022-10-15T04:58:31;13.90;99.90
5346;DHT22;2695;49.444;11.054;2022-10-15T05:01:00;13.80;99.90
5346;DHT22;2695;49.444;11.054;2022-10-15T05:03:30;13.90;99.90
5346;DHT22;2695;49.444;11.054;2022-10-15T05:05:59;13.90;99.90
5346;DHT22;2695;49.444;11.054;2022-10-15T05:08:31;13.80;99.90
5346;DHT22;2695;49.444;11.054;2022-10-15T05:11:00;13.90;99.90
5346;DHT22;2695;49.444;11.054;2022-10-15T05:13:29;13.90;99.90
5346;DHT22;2695;49.444;11.054;2022-10-15T05:16:07;13.90;99.90
5346;DHT22;2695;49.444;11.054;2022-10-15T05:18:36;13.90;99.90
5346;DHT22;2695;49.444;11.054;2022-10-15T05:21:05;13.90;99.90
5346;DHT22;2695;49.444;11.054;2022-10-15T05:23:34;13.80;99.90
5346;DHT22;2695;49.444;11.054;2022-10-15T05:26:06;13.90;99.90
5346;DHT22;2695;49.444;11.054;2022-10-15T05:28:34;13.90;99.90
5346;DHT22;2695;49.444;11.054;2022-10-15T05:31:04;13.90;99.90
5346;DHT22;2695;49.444;11.054;2022-10-15T05:33:32;13.90;99.90
5346;DHT22;2695;49.444;11.054;2022-10-15T05:36:08;13.90;99.90
5346;DHT22;2695;49.444;11.054;2022-10-15T05:38:39;13.90;99.90
5346;DHT22;2695;49.444;11.054;2022-10-15T05:41:07;13.90;99.90
5346;DHT22;2695;49.444;11.054;2022-10-15T05:43:35;14.00;99.90
5346;DHT22;2695;49.444;11.054;2022-10-15T05:46:08;13.90;99.90
5346;DHT22;2695;49.444;11.054;2022-10-15T05:48:36;13.90;99.90
5346;DHT22;2695;49.444;11.054;2022-10-15T05:51:06;13.90;99.90
5346;DHT22;2695;49.444;11.054;2022-10-15T05:53:34;14.00;99.90
5346;DHT22;2695;49.444;11.054;2022-10-15T05:56:09;14.00;99.90
5346;DHT22;2695;49.444;11.054;2022-10-15T05:58:44;14.00;99.90
5346;DHT22;2695;49.444;11.054;2022-10-15T06:01:28;14.00;99.90
5346;DHT22;2695;49.444;11.054;2022-10-15T06:04:08;14.10;99.90
5346;DHT22;2695;49.444;11.054;2022-10-15T06:06:39;14.20;99.90
5346;DHT22;2695;49.444;11.054;2022-10-15T06:09:07;14.10;99.90
5346;DHT22;2695;49.444;11.054;2022-10-15T06:11:39;14.20;99.90
5346;DHT22;2695;49.444;11.054;2022-10-15T06:14:07;14.10;99.90
5346;DHT22;2695;49.444;11.054;2022-10-15T06:16:35;14.20;99.90
5346;DHT22;2695;49.444;11.054;2022-10-15T06:19:03;14.20;99.90
5346;DHT22;2695;49.444;11.054;2022-10-15T06:21:32;14.20;99.90
5346;DHT22;2695;49.444;11.054;2022-10-15T06:24:00;14.20;99.90
5346;DHT22;2695;49.444;11.054;2022-10-15T06:26:34;14.30;99.90
5346;DHT22;2695;49.444;11.054;2022-10-15T06:29:04;14.30;99.90
5346;DHT22;2695;49.444;11.054;2022-10-15T06:31:32;14.30;99.90
5346;DHT22;2695;49.444;11.054;2022-10-15T06:34:00;14.30;99.90
5346;DHT22;2695;49.444;11.054;2022-10-15T06:36:28;14.40;99.90
5346;DHT22;2695;49.444;11.054;2022-10-15T06:38:56;14.40;99.90
5346;DHT22;2695;49.444;11.054;2022-10-15T06:41:24;14.40;99.90
5346;DHT22;2695;49.444;11.054;2022-10-15T06:43:52;14.40;99.90
5346;DHT22;2695;49.444;11.054;2022-10-15T06:46:22;14.50;99.90
5346;DHT22;2695;49.444;11.054;2022-10-15T06:48:50;14.50;99.90
5346;DHT22;2695;49.444;11.054;2022-10-15T06:51:30;14.60;99.90
5346;DHT22;2695;49.444;11.054;2022-10-15T06:53:58;14.60;99.90
5346;DHT22;2695;49.444;11.054;2022-10-15T06:56:26;14.60;99.90
5346;DHT22;2695;49.444;11.054;2022-10-15T06:58:54;14.60;99.90
5346;DHT22;2695;49.444;11.054;2022-10-15T07:01:24;14.60;99.90
5346;DHT22;2695;49.444;11.054;2022-10-15T07:03:52;14.70;99.90
5346;DHT22;2695;49.444;11.054;2022-10-15T07:06:20;14.70;99.90
5346;DHT22;2695;49.444;11.054;2022-10-15T07:08:49;14.70;99.90
5346;DHT22;2695;49.444;11.054;2022-10-15T07:11:17;14.80;99.90
5346;DHT22;2695;49.444;11.054;2022-10-15T07:13:45;14.80;99.90
5346;DHT22;2695;49.444;11.054;2022-10-15T07:16:13;14.80;99.90
5346;DHT22;2695;49.444;11.054;2022-10-15T07:18:42;14.90;99.90
5346;DHT22;2695;49.444;11.054;2022-10-15T07:21:10;15.00;99.90
5346;DHT22;2695;49.444;11.054;2022-10-15T07:23:38;14.90;99.90
5346;DHT22;2695;49.444;11.054;2022-10-15T07:26:06;14.90;99.90
5346;DHT22;2695;49.444;11.054;2022-10-15T07:28:34;15.00;99.90
5346;DHT22;2695;49.444;11.054;2022-10-15T07:31:04;15.00;99.90
5346;DHT22;2695;49.444;11.054;2022-10-15T07:33:33;15.10;99.90
5346;DHT22;2695;49.444;11.054;2022-10-15T07:36:05;15.10;99.90
5346;DHT22;2695;49.444;11.054;2022-10-15T07:38:34;15.10;99.90
5346;DHT22;2695;49.444;11.054;2022-10-15T07:41:03;15.20;99.90
5346;DHT22;2695;49.444;11.054;2022-10-15T07:43:31;15.30;99.90
5346;DHT22;2695;49.444;11.054;2022-10-15T07:46:00;15.30;99.90
5346;DHT22;2695;49.444;11.054;2022-10-15T07:48:28;15.30;99.90
5346;DHT22;2695;49.444;11.054;2022-10-15T07:50:57;15.50;99.90
5346;DHT22;2695;49.444;11.054;2022-10-15T07:53:27;15.50;99.90
5346;DHT22;2695;49.444;11.054;2022-10-15T07:56:02;15.70;99.90
5346;DHT22;2695;49.444;11.054;2022-10-15T07:58:32;15.60;99.90
5346;DHT22;2695;49.444;11.054;2022-10-15T08:01:01;15.70;99.90
5346;DHT22;2695;49.444;11.054;2022-10-15T08:03:29;15.70;99.90
5346;DHT22;2695;49.444;11.054;2022-10-15T08:05:59;15.70;99.90
5346;DHT22;2695;49.444;11.054;2022-10-15T08:08:29;15.80;99.90
5346;DHT22;2695;49.444;11.054;2022-10-15T08:11:03;15.80;99.90
5346;DHT22;2695;49.444;11.054;2022-10-15T08:13:32;15.90;99.90
5346;DHT22;2695;49.444;11.054;2022-10-15T08:16:11;15.80;99.90
5346;DHT22;2695;49.444;11.054;2022-10-15T08:18:40;15.80;99.90
5346;DHT22;2695;49.444;11.054;2022-10-15T08:21:14;15.80;99.90
5346;DHT22;2695;49.444;11.054;2022-10-15T08:23:49;15.90;99.90
5346;DHT22;2695;49.444;11.054;2022-10-15T08:26:39;16.00;99.90
5346;DHT22;2695;49.444;11.054;2022-10-15T08:29:09;16.00;99.90
5346;DHT22;2695;49.444;11.054;2022-10-15T08:31:43;16.10;99.90
5346;DHT22;2695;49.444;11.054;2022-10-15T08:34:17;16.10;99.90
5346;DHT22;2695;49.444;11.054;2022-10-15T08:36:45;16.10;99.90
5346;DHT22;2695;49.444;11.054;2022-10-15T08:39:15;16.20;99.90
5346;DHT22;2695;49.444;11.054;2022-10-15T08:41:59;16.10;99.90
5346;DHT22;2695;49.444;11.054;2022-10-15T08:44:32;16.10;99.90
5346;DHT22;2695;49.444;11.054;2022-10-15T08:47:08;16.10;99.90
5346;DHT22;2695;49.444;11.054;2022-10-15T08:49:44;16.00;99.90
5346;DHT22;2695;49.444;11.054;2022-10-15T08:52:18;16.00;99.90
5346;DHT22;2695;49.444;11.054;2022-10-15T08:54:49;16.00;99.90
5346;DHT22;2695;49.444;11.054;2022-10-15T08:57:27;16.00;99.90
5346;DHT22;2695;49.444;11.054;2022-10-15T09:00:03;16.00;99.90
5346;DHT22;2695;49.444;11.054;2022-10-15T09:02:38;16.00;99.90
5346;DHT22;2695;49.444;11.054;2022-10-15T09:05:26;16.00;99.90
5346;DHT22;2695;49.444;11.054;2022-10-15T09:08:02;16.10;99.90
5346;DHT22;2695;49.444;11.054;2022-10-15T09:10:37;16.10;99.90
5346;DHT22;2695;49.444;11.054;2022-10-15T09:13:11;16.20;99.90
5346;DHT22;2695;49.444;11.054;2022-10-15T09:15:47;16.20;99.90
5346;DHT22;2695;49.444;11.054;2022-10-15T09:18:21;16.30;99.90
5346;DHT22;2695;49.444;11.054;2022-10-15T09:20:50;16.40;99.90
5346;DHT22;2695;49.444;11.054;2022-10-15T09:23:21;16.40;99.90
5346;DHT22;2695;49.444;11.054;2022-10-15T09:25:56;16.40;99.90
5346;DHT22;2695;49.444;11.054;2022-10-15T09:28:29;16.40;99.90
5346;DHT22;2695;49.444;11.054;2022-10-15T09:31:00;16.50;99.90
5346;DHT22;2695;49.444;11.054;2022-10-15T09:33:38;16.70;99.90
5346;DHT22;2695;49.444;11.054;2022-10-15T09:36:17;16.80;99.90
5346;DHT22;2695;49.444;11.054;2022-10-15T09:38:54;17.00;99.90
5346;DHT22;2695;49.444;11.054;2022-10-15T09:41:32;17.20;99.90
5346;DHT22;2695;49.444;11.054;2022-10-15T09:44:04;17.50;99.90
5346;DHT22;2695;49.444;11.054;2022-10-15T09:46:42;17.70;99.90
5346;DHT22;2695;49.444;11.054;2022-10-15T09:49:13;17.90;99.90
5346;DHT22;2695;49.444;11.054;2022-10-15T09:51:54;18.00;99.90
5346;DHT22;2695;49.444;11.054;2022-10-15T09:54:31;18.10;99.90
5346;DHT22;2695;49.444;11.054;2022-10-15T09:57:07;18.20;99.90
5346;DHT22;2695;49.444;11.054;2022-10-15T09:59:36;18.30;99.90
5346;DHT22;2695;49.444;11.054;2022-10-15T10:02:16;18.50;99.90
5346;DHT22;2695;49.444;11.054;2022-10-15T10:04:45;18.50;99.90
5346;DHT22;2695;49.444;11.054;2022-10-15T10:07:31;18.50;99.90
5346;DHT22;2695;49.444;11.054;2022-10-15T10:10:05;18.50;99.90
5346;DHT22;2695;49.444;11.054;2022-10-15T10:12:36;18.40;99.90
5346;DHT22;2695;49.444;11.054;2022-10-15T10:15:07;18.30;99.90
5346;DHT22;2695;49.444;11.054;2022-10-15T10:17:54;18.30;99.90
5346;DHT22;2695;49.444;11.054;2022-10-15T10:20:23;18.10;99.90
5346;DHT22;2695;49.444;11.054;2022-10-15T10:22:54;18.10;99.90
5346;DHT22;2695;49.444;11.054;2022-10-15T10:25:29;18.20;99.90
5346;DHT22;2695;49.444;11.054;2022-10-15T10:28:04;18.20;99.90
5346;DHT22;2695;49.444;11.054;2022-10-15T10:30:36;18.20;99.90
5346;DHT22;2695;49.444;11.054;2022-10-15T10:33:04;18.20;99.90
5346;DHT22;2695;49.444;11.054;2022-10-15T10:35:35;18.20;99.90
5346;DHT22;2695;49.444;11.054;2022-10-15T10:38:21;18.20;99.90
5346;DHT22;2695;49.444;11.054;2022-10-15T10:40:53;18.30;99.90
5346;DHT22;2695;49.444;11.054;2022-10-15T10:43:27;18.30;99.90
5346;DHT22;2695;49.444;11.054;2022-10-15T10:45:57;18.30;99.90
5346;DHT22;2695;49.444;11.054;2022-10-15T10:48:28;18.40;99.90
5346;DHT22;2695;49.444;11.054;2022-10-15T10:51:07;18.50;99.90
5346;DHT22;2695;49.444;11.054;2022-10-15T10:53:58;18.60;99.90
5346;DHT22;2695;49.444;11.054;2022-10-15T10:56:30;18.80;99.90
5346;DHT22;2695;49.444;11.054;2022-10-15T10:59:08;19.00;99.90
5346;DHT22;2695;49.444;11.054;2022-10-15T11:01:38;19.40;99.90
5346;DHT22;2695;49.444;11.054;2022-10-15T11:04:09;19.80;99.90
5346;DHT22;2695;49.444;11.054;2022-10-15T11:06:57;20.50;99.90
5346;DHT22;2695;49.444;11.054;2022-10-15T11:09:49;21.00;99.90
5346;DHT22;2695;49.444;11.054;2022-10-15T11:12:43;20.90;99.90
5346;DHT22;2695;49.444;11.054;2022-10-15T11:15:28;20.60;99.90
5346;DHT22;2695;49.444;11.054;2022-10-15T11:18:11;20.40;99.90
5346;DHT22;2695;49.444;11.054;2022-10-15T11:20:48;20.20;99.90
5346;DHT22;2695;49.444;11.054;2022-10-15T11:23:38;20.20;99.90
5346;DHT22;2695;49.444;11.054;2022-10-15T11:26:20;20.10;99.90
5346;DHT22;2695;49.444;11.054;2022-10-15T11:28:59;19.90;99.90
5346;DHT22;2695;49.444;11.054;2022-10-15T11:31:37;19.80;99.90
5346;DHT22;2695;49.444;11.054;2022-10-15T11:34:38;19.50;99.90
5346;DHT22;2695;49.444;11.054;2022-10-15T11:37:24;19.30;99.90
5346;DHT22;2695;49.444;11.054;2022-10-15T11:40:11;19.30;99.90
5346;DHT22;2695;49.444;11.054;2022-10-15T11:42:50;19.20;99.90
5346;DHT22;2695;49.444;11.054;2022-10-15T11:45:41;19.00;99.90
5346;DHT22;2695;49.444;11.054;2022-10-15T11:48:17;19.00;99.90
5346;DHT22;2695;49.444;11.054;2022-10-15T11:50:49;19.00;99.90
5346;DHT22;2695;49.444;11.054;2022-10-15T11:56:25;18.90;99.90
5346;DHT22;2695;49.444;11.054;2022-10-15T11:58:59;19.00;99.90
5346;DHT22;2695;49.444;11.054;2022-10-15T12:01:32;19.10;99.90
5346;DHT22;2695;49.444;11.054;2022-10-15T12:04:09;19.10;99.90
5346;DHT22;2695;49.444;11.054;2022-10-15T12:06:42;19.20;99.90
5346;DHT22;2695;49.444;11.054;2022-10-15T12:09:15;19.10;99.90
5346;DHT22;2695;49.444;11.054;2022-10-15T12:11:48;19.10;99.90
5346;DHT22;2695;49.444;11.054;2022-10-15T12:14:22;19.10;99.90
5346;DHT22;2695;49.444;11.054;2022-10-15T12:16:57;19.20;99.90
5346;DHT22;2695;49.444;11.054;2022-10-15T12:19:35;19.20;99.90
5346;DHT22;2695;49.444;11.054;2022-10-15T12:22:06;19.20;99.90
5346;DHT22;2695;49.444;11.054;2022-10-15T12:24:53;19.30;99.90
5346;DHT22;2695;49.444;11.054;2022-10-15T12:27:25;19.30;99.90
5346;DHT22;2695;49.444;11.054;2022-10-15T12:30:28;19.10;99.90
5346;DHT22;2695;49.444;11.054;2022-10-15T12:33:19;18.90;99.90
5346;DHT22;2695;49.444;11.054;2022-10-15T12:35:58;18.90;99.90
5346;DHT22;2695;49.444;11.054;2022-10-15T12:38:29;18.90;99.90
5346;DHT22;2695;49.444;11.054;2022-10-15T12:41:16;18.80;99.90
5346;DHT22;2695;49.444;11.054;2022-10-15T12:44:05;18.70;99.90
5346;DHT22;2695;49.444;11.054;2022-10-15T12:46:42;18.80;99.90
5346;DHT22;2695;49.444;11.054;2022-10-15T12:53:01;19.00;99.90
5346;DHT22;2695;49.444;11.054;2022-10-15T12:55:36;19.20;99.90
5346;DHT22;2695;49.444;11.054;2022-10-15T12:58:34;19.40;99.90
5346;DHT22;2695;49.444;11.054;2022-10-15T13:01:26;19.50;99.90
5346;DHT22;2695;49.444;11.054;2022-10-15T13:03:58;19.50;99.90
5346;DHT22;2695;49.444;11.054;2022-10-15T13:06:33;19.30;99.90
5346;DHT22;2695;49.444;11.054;2022-10-15T13:09:28;19.10;99.90
5346;DHT22;2695;49.444;11.054;2022-10-15T13:11:59;19.10;99.90
5346;DHT22;2695;49.444;11.054;2022-10-15T13:14:30;19.00;99.90
5346;DHT22;2695;49.444;11.054;2022-10-15T13:17:02;19.00;99.90
5346;DHT22;2695;49.444;11.054;2022-10-15T13:19:35;19.10;99.90
5346;DHT22;2695;49.444;11.054;2022-10-15T13:22:22;19.10;99.90
5346;DHT22;2695;49.444;11.054;2022-10-15T13:25:01;19.10;99.90
5346;DHT22;2695;49.444;11.054;2022-10-15T13:27:44;19.10;99.90
5346;DHT22;2695;49.444;11.054;2022-10-15T13:30:18;19.10;99.90
5346;DHT22;2695;49.444;11.054;2022-10-15T13:32:56;19.10;99.90
5346;DHT22;2695;49.444;11.054;2022-10-15T13:35:26;19.20;99.90
5346;DHT22;2695;49.444;11.054;2022-10-15T13:40:52;19.40;99.90
5346;DHT22;2695;49.444;11.054;2022-10-15T13:43:31;19.30;99.90
5346;DHT22;2695;49.444;11.054;2022-10-15T13:46:14;19.20;99.90
5346;DHT22;2695;49.444;11.054;2022-10-15T13:48:43;19.20;99.90
5346;DHT22;2695;49.444;11.054;2022-10-15T13:51:17;19.20;99.90
5346;DHT22;2695;49.444;11.054;2022-10-15T13:53:52;19.20;99.90
5346;DHT22;2695;49.444;11.054;2022-10-15T13:56:32;19.20;99.90
5346;DHT22;2695;49.444;11.054;2022-10-15T13:59:04;19.20;99.90
5346;DHT22;2695;49.444;11.054;2022-10-15T14:01:35;19.20;99.90
5346;DHT22;2695;49.444;11.054;2022-10-15T14:04:18;19.20;99.90
5346;DHT22;2695;49.444;11.054;2022-10-15T14:07:17;19.20;99.90
5346;DHT22;2695;49.444;11.054;2022-10-15T14:10:29;19.20;99.90
5346;DHT22;2695;49.444;11.054;2022-10-15T14:16:49;19.50;99.90
5346;DHT22;2695;49.444;11.054;2022-10-15T14:19:26;19.40;99.90
5346;DHT22;2695;49.444;11.054;2022-10-15T14:22:28;19.30;99.90
5346;DHT22;2695;49.444;11.054;2022-10-15T14:25:24;19.00;99.90
5346;DHT22;2695;49.444;11.054;2022-10-15T14:28:04;18.90;99.90
5346;DHT22;2695;49.444;11.054;2022-10-15T14:30:46;18.80;99.90
5346;DHT22;2695;49.444;11.054;2022-10-15T14:33:32;18.80;99.90
5346;DHT22;2695;49.444;11.054;2022-10-15T14:36:03;18.90;99.90
5346;DHT22;2695;49.444;11.054;2022-10-15T14:38:34;19.10;99.90
5346;DHT22;2695;49.444;11.054;2022-10-15T14:41:04;19.20;99.90
5346;DHT22;2695;49.444;11.054;2022-10-15T14:43:36;19.40;99.90
5346;DHT22;2695;49.444;11.054;2022-10-15T14:46:06;19.40;99.90
5346;DHT22;2695;49.444;11.054;2022-10-15T14:48:42;19.40;99.90
5346;DHT22;2695;49.444;11.054;2022-10-15T14:51:16;19.40;99.90
5346;DHT22;2695;49.444;11.054;2022-10-15T14:53:46;19.40;99.90
5346;DHT22;2695;49.444;11.054;2022-10-15T14:56:19;19.40;99.90
5346;DHT22;2695;49.444;11.054;2022-10-15T14:58:51;19.40;99.90
5346;DHT22;2695;49.444;11.054;2022-10-15T15:01:25;19.40;99.90
5346;DHT22;2695;49.444;11.054;2022-10-15T15:04:00;19.30;99.90
5346;DHT22;2695;49.444;11.054;2022-10-15T15:06:37;19.40;99.90
5346;DHT22;2695;49.444;11.054;2022-10-15T15:09:22;19.30;99.90
5346;DHT22;2695;49.444;11.054;2022-10-15T15:12:09;19.20;99.90
5346;DHT22;2695;49.444;11.054;2022-10-15T15:14:40;19.10;99.90
5346;DHT22;2695;49.444;11.054;2022-10-15T15:17:28;19.10;99.90
5346;DHT22;2695;49.444;11.054;2022-10-15T15:19:59;19.00;99.90
5346;DHT22;2695;49.444;11.054;2022-10-15T15:22:29;18.90;99.90
5346;DHT22;2695;49.444;11.054;2022-10-15T15:25:00;18.80;99.90
5346;DHT22;2695;49.444;11.054;2022-10-15T15:27:30;18.70;99.90
5346;DHT22;2695;49.444;11.054;2022-10-15T15:30:03;18.60;99.90
5346;DHT22;2695;49.444;11.054;2022-10-15T15:32:33;18.50;99.90
5346;DHT22;2695;49.444;11.054;2022-10-15T15:35:18;18.50;99.90
5346;DHT22;2695;49.444;11.054;2022-10-15T15:37:47;18.40;99.90
5346;DHT22;2695;49.444;11.054;2022-10-15T15:40:15;18.40;99.90
5346;DHT22;2695;49.444;11.054;2022-10-15T15:42:45;18.40;99.90
5346;DHT22;2695;49.444;11.054;2022-10-15T15:45:18;18.30;99.90
5346;DHT22;2695;49.444;11.054;2022-10-15T15:47:46;18.30;99.90
5346;DHT22;2695;49.444;11.054;2022-10-15T15:50:18;18.30;99.90
5346;DHT22;2695;49.444;11.054;2022-10-15T15:52:47;18.20;99.90
5346;DHT22;2695;49.444;11.054;2022-10-15T15:55:16;18.20;99.90
5346;DHT22;2695;49.444;11.054;2022-10-15T15:57:44;18.10;99.90
5346;DHT22;2695;49.444;11.054;2022-10-15T16:00:13;18.10;99.90
5346;DHT22;2695;49.444;11.054;2022-10-15T16:02:42;18.20;99.90
5346;DHT22;2695;49.444;11.054;2022-10-15T16:05:13;18.10;99.90
5346;DHT22;2695;49.444;11.054;2022-10-15T16:07:43;18.10;99.90
5346;DHT22;2695;49.444;11.054;2022-10-15T16:10:12;18.00;99.90
5346;DHT22;2695;49.444;11.054;2022-10-15T16:12:41;18.00;99.90
5346;DHT22;2695;49.444;11.054;2022-10-15T16:15:10;18.00;99.90
5346;DHT22;2695;49.444;11.054;2022-10-15T16:17:41;18.00;99.90
5346;DHT22;2695;49.444;11.054;2022-10-15T16:20:10;17.90;99.90
5346;DHT22;2695;49.444;11.054;2022-10-15T16:22:38;17.90;99.90
5346;DHT22;2695;49.444;11.054;2022-10-15T16:25:08;17.90;99.90
5346;DHT22;2695;49.444;11.054;2022-10-15T16:27:37;17.90;99.90
5346;DHT22;2695;49.444;11.054;2022-10-15T16:30:06;17.90;99.90
5346;DHT22;2695;49.444;11.054;2022-10-15T16:32:34;17.90;99.90
5346;DHT22;2695;49.444;11.054;2022-10-15T16:35:02;17.80;99.90
5346;DHT22;2695;49.444;11.054;2022-10-15T16:37:31;17.80;99.90
5346;DHT22;2695;49.444;11.054;2022-10-15T16:39:59;17.80;99.90
5346;DHT22;2695;49.444;11.054;2022-10-15T16:42:29;17.80;99.90
5346;DHT22;2695;49.444;11.054;2022-10-15T16:44:57;17.80;99.90
5346;DHT22;2695;49.444;11.054;2022-10-15T16:47:25;17.70;99.90
5346;DHT22;2695;49.444;11.054;2022-10-15T16:49:54;17.70;99.90
5346;DHT22;2695;49.444;11.054;2022-10-15T16:52:22;17.70;99.90